Time;durP1;ratioP1;P1;durP2;ratioP2;P2;SDS_P1;SDS_P2;PMS_P1;PMS_P2;Temp;Humidity;BMP_temperature;BMP_pressure;BME280_temperature;BME280_humidity;BME280_pressure;Samples;Min_cycle;Max_cycle;Signal;HPM_P1;HPM_P2
2020/12/01 00:09:49;;;;;;;55.92;17.90;;;-0.90;99.90;;;;;;21000598;28;20555;-63
2020/12/01 00:19:52;;;;;;;39.72;15.80;;;-1.00;99.90;;;;;;20999932;28;20048;-63
2020/12/01 00:29:54;;;;;;;50.85;16.30;;;-1.00;99.90;;;;;;20999887;28;20101;-62
2020/12/01 00:39:56;;;;;;;46.70;13.15;;;-1.10;99.90;;;;;;20997675;28;20196;-63
2020/12/01 00:49:58;;;;;;;48.53;14.30;;;-1.00;99.90;;;;;;20998214;28;20032;-63
2020/12/01 01:00:01;;;;;;;36.25;11.88;;;-1.00;99.90;;;;;;20995230;28;20037;-63
2020/12/01 01:10:29;;;;;;;25.58;10.13;;;-1.00;99.90;;;;;;20993359;28;20048;-63
2020/12/01 01:20:31;;;;;;;24.05;10.95;;;-1.10;99.90;;;;;;20993690;28;20053;-62
2020/12/01 01:30:34;;;;;;;17.70;8.70;;;-1.10;99.90;;;;;;20990598;28;20089;-63
2020/12/01 01:40:36;;;;;;;19.17;9.70;;;-1.20;99.90;;;;;;20992328;28;20041;-63
2020/12/01 01:50:38;;;;;;;16.75;7.65;;;-1.30;99.90;;;;;;20990486;28;20098;-63
2020/12/01 02:00:56;;;;;;;28.58;12.55;;;-1.50;99.90;;;;;;20991544;28;20406;-62
2020/12/01 02:11:01;;;;;;;26.48;10.60;;;-1.60;99.90;;;;;;20990682;28;20052;-62
2020/12/01 02:21:26;;;;;;;27.27;10.73;;;-1.60;99.90;;;;;;20988860;28;20048;-63
2020/12/01 02:31:28;;;;;;;25.38;10.45;;;-1.50;99.90;;;;;;20989920;28;20543;-63
2020/12/01 02:41:30;;;;;;;21.75;9.00;;;-1.40;99.90;;;;;;20990891;28;20090;-62
2020/12/01 02:51:32;;;;;;;22.13;9.20;;;-1.40;99.90;;;;;;20990086;28;20098;-62
2020/12/01 03:01:34;;;;;;;22.98;9.50;;;-1.40;99.90;;;;;;20992807;28;20048;-63
2020/12/01 03:11:36;;;;;;;24.42;9.23;;;-1.50;99.90;;;;;;21006281;28;20371;-63
2020/12/01 03:21:38;;;;;;;20.27;9.35;;;-1.50;99.90;;;;;;21002371;28;20049;-62
2020/12/01 03:31:40;;;;;;;22.98;10.35;;;-1.50;99.90;;;;;;21003735;28;20055;-63
2020/12/01 03:41:42;;;;;;;20.65;9.27;;;-1.50;99.90;;;;;;21003283;28;20037;-64
2020/12/01 03:51:44;;;;;;;29.25;9.75;;;-1.50;99.90;;;;;;21002207;28;20101;-63
2020/12/01 04:01:46;;;;;;;22.20;10.18;;;-1.50;99.90;;;;;;21001069;28;20070;-62
2020/12/01 04:11:48;;;;;;;26.88;12.65;;;-1.60;99.90;;;;;;20999866;28;20090;-62
2020/12/01 04:21:49;;;;;;;21.30;9.73;;;-1.50;99.90;;;;;;20997711;28;20130;-62
2020/12/01 04:31:52;;;;;;;22.90;10.48;;;-1.50;99.90;;;;;;20997272;28;20056;-62
2020/12/01 04:41:55;;;;;;;22.33;9.93;;;-1.50;99.90;;;;;;20998933;28;20411;-63
2020/12/01 04:52:18;;;;;;;25.75;12.40;;;-1.50;99.90;;;;;;20997692;28;20032;-63
2020/12/01 05:02:43;;;;;;;30.33;12.75;;;-1.40;99.90;;;;;;20994276;28;20079;-63
2020/12/01 05:12:56;;;;;;;28.85;12.23;;;-1.40;99.90;;;;;;20995771;28;20102;-63
2020/12/01 05:23:01;;;;;;;27.58;12.07;;;-1.30;99.90;;;;;;20994382;28;20189;-63
2020/12/01 05:33:26;;;;;;;31.27;14.20;;;-1.20;99.90;;;;;;20992738;28;20129;-63
2020/12/01 05:43:37;;;;;;;32.15;13.32;;;-1.20;99.90;;;;;;20988355;28;20141;-63
2020/12/01 05:53:40;;;;;;;23.38;10.77;;;-1.10;99.90;;;;;;20989066;28;20371;-62
2020/12/01 06:04:14;;;;;;;25.75;11.75;;;-1.20;99.90;;;;;;20988643;28;20053;-63
2020/12/01 06:14:28;;;;;;;28.42;12.15;;;-1.30;99.90;;;;;;20991537;28;20572;-63
2020/12/01 06:24:36;;;;;;;27.20;12.48;;;-1.30;99.90;;;;;;20991598;28;20094;-63
2020/12/01 06:34:50;;;;;;;29.55;12.88;;;-1.20;99.90;;;;;;20972366;28;20567;-63
2020/12/01 06:45:07;;;;;;;25.67;12.48;;;-1.10;99.90;;;;;;20990303;28;20041;-63
2020/12/01 06:55:40;;;;;;;26.48;12.27;;;-0.90;99.90;;;;;;20989627;28;20094;-63
2020/12/01 07:05:42;;;;;;;27.80;13.07;;;-0.90;99.90;;;;;;20939209;28;20056;-63
2020/12/01 07:15:47;;;;;;;27.38;12.80;;;-0.70;99.90;;;;;;20988648;28;20281;-63
2020/12/01 07:26:15;;;;;;;29.13;13.55;;;-0.50;99.90;;;;;;20988958;28;20063;-63
2020/12/01 07:36:40;;;;;;;25.13;12.85;;;-0.40;99.90;;;;;;20988093;28;20044;-63
2020/12/01 07:47:15;;;;;;;31.00;14.32;;;-0.30;99.90;;;;;;20988640;28;20093;-63
2020/12/01 07:57:13;;;;;;;29.90;15.45;;;-0.20;99.90;;;;;;20997636;28;20094;-63
2020/12/01 08:07:18;;;;;;;29.33;15.02;;;-0.10;99.90;;;;;;20999720;28;20498;-63
2020/12/01 08:17:27;;;;;;;24.23;12.98;;;-0.10;99.90;;;;;;20982149;28;20117;-63
2020/12/01 08:27:52;;;;;;;25.48;13.02;;;0.00;99.90;;;;;;20999454;28;20449;-64
2020/12/01 08:38:02;;;;;;;26.83;13.90;;;0.20;99.90;;;;;;20997340;28;20505;-63
2020/12/01 08:48:14;;;;;;;26.07;13.77;;;0.40;99.90;;;;;;20980146;28;20044;-64
2020/12/01 08:58:38;;;;;;;25.08;12.95;;;0.50;99.90;;;;;;20997223;28;20041;-63
2020/12/01 09:08:56;;;;;;;24.98;12.90;;;0.80;99.90;;;;;;20997096;28;20086;-63
2020/12/01 09:29:13;;;;;;;22.92;12.30;;;0.70;99.90;;;;;;20994302;28;20633;-63
2020/12/01 09:39:16;;;;;;;24.40;12.73;;;0.70;99.90;;;;;;20993325;28;20051;-63
2020/12/01 09:49:18;;;;;;;22.55;11.93;;;0.70;99.90;;;;;;20990716;28;20589;-63
2020/12/01 10:09:35;;;;;;;23.10;11.93;;;1.00;99.90;;;;;;20989319;28;20045;-63
2020/12/01 10:40:03;;;;;;;16.10;9.50;;;1.90;99.90;;;;;;20988477;28;20113;-63
2020/12/01 10:50:06;;;;;;;21.42;12.38;;;2.00;99.90;;;;;;20989609;28;20082;-63
2020/12/01 11:00:10;;;;;;;19.95;10.90;;;2.10;99.90;;;;;;20989017;28;20181;-63
2020/12/01 11:10:12;;;;;;;25.50;14.27;;;2.10;99.90;;;;;;20988566;28;20037;-63
2020/12/01 11:20:17;;;;;;;24.60;14.48;;;1.90;99.90;;;;;;20987266;28;20398;-63
2020/12/01 11:30:21;;;;;;;26.42;15.13;;;1.50;99.90;;;;;;21001558;28;20468;-63
2020/12/01 11:40:24;;;;;;;23.20;13.30;;;1.30;99.90;;;;;;20961802;28;20544;-63
2020/12/01 11:50:26;;;;;;;26.65;14.98;;;1.10;99.90;;;;;;21002330;28;20032;-63
2020/12/01 12:00:29;;;;;;;23.45;14.23;;;1.20;99.90;;;;;;21001607;28;20040;-63
2020/12/01 12:10:32;;;;;;;26.08;13.98;;;1.20;99.90;;;;;;20855557;22;20058;-63
2020/12/01 12:20:35;;;;;;;28.88;15.05;;;1.20;99.90;;;;;;20670630;28;20054;-63
2020/12/01 12:30:37;;;;;;;24.55;14.63;;;1.30;99.90;;;;;;20671366;28;20027;-63
2020/12/01 12:40:39;;;;;;;23.05;13.35;;;1.20;99.90;;;;;;20667083;28;20109;-63
2020/12/01 12:50:41;;;;;;;27.92;15.13;;;1.00;99.90;;;;;;20669280;28;20035;-63
2020/12/01 13:00:44;;;;;;;38.55;19.90;;;1.00;99.90;;;;;;20668339;28;20555;-63
2020/12/01 13:10:46;;;;;;;38.42;19.30;;;0.80;99.90;;;;;;20625118;28;20109;-63
2020/12/01 13:20:49;;;;;;;36.83;18.80;;;0.70;99.90;;;;;;20631113;28;20054;-63
2020/12/01 13:30:51;;;;;;;37.05;18.65;;;0.70;99.90;;;;;;20628174;28;20062;-63
2020/12/01 13:40:53;;;;;;;32.65;17.33;;;0.80;99.90;;;;;;20619246;28;20085;-63
2020/12/01 13:50:58;;;;;;;35.13;17.48;;;0.90;99.90;;;;;;20622108;28;20084;-63
2020/12/01 14:01:00;;;;;;;35.70;18.83;;;0.80;99.90;;;;;;20620920;28;20038;-63
2020/12/01 14:11:03;;;;;;;29.90;16.85;;;0.70;99.90;;;;;;20620683;28;20566;-63
2020/12/01 14:21:05;;;;;;;32.75;17.20;;;0.50;99.90;;;;;;20627380;28;20034;-63
2020/12/01 14:31:08;;;;;;;29.95;16.70;;;0.50;99.90;;;;;;20619975;28;20042;-63
2020/12/01 14:41:13;;;;;;;33.22;17.45;;;0.50;99.90;;;;;;20620743;28;20054;-63
2020/12/01 14:51:39;;;;;;;32.72;17.45;;;0.40;99.90;;;;;;20614201;28;20559;-63
2020/12/01 15:02:07;;;;;;;33.60;17.58;;;0.40;99.90;;;;;;20630521;28;20050;-63
2020/12/01 15:12:39;;;;;;;32.47;17.65;;;0.40;99.90;;;;;;20634617;28;20141;-63
2020/12/01 15:23:10;;;;;;;35.28;18.23;;;0.30;99.90;;;;;;20634441;28;20046;-63
2020/12/01 15:33:16;;;;;;;35.33;17.93;;;0.10;99.90;;;;;;20638292;28;20039;-63
2020/12/01 15:43:31;;;;;;;35.50;18.35;;;-0.20;99.90;;;;;;20636072;28;20396;-63
2020/12/01 15:53:53;;;;;;;39.08;20.05;;;-0.50;99.90;;;;;;20634580;28;20058;-63
2020/12/01 16:04:20;;;;;;;39.58;20.10;;;-0.70;99.90;;;;;;20608836;28;20082;-63
2020/12/01 16:14:43;;;;;;;40.10;20.25;;;-0.70;99.90;;;;;;20622693;28;20046;-62
2020/12/01 16:24:45;;;;;;;18.60;8.27;;;-0.90;99.90;;;;;;20617430;28;20125;-65
2020/12/01 16:34:48;;;;;;;12.73;5.97;;;-0.80;99.90;;;;;;20628888;28;20042;-65
2020/12/01 16:44:56;;;;;;;9.80;5.72;;;-0.40;99.90;;;;;;20613200;28;20558;-62
2020/12/01 16:55:15;;;;;;;10.30;5.07;;;-0.40;99.90;;;;;;20616648;28;20050;-65
2020/12/01 17:05:45;;;;;;;6.55;3.92;;;-0.30;99.90;;;;;;20627258;28;20190;-65
2020/12/01 17:16:47;;;;;;;7.38;4.07;;;-0.10;99.90;;;;;;20630287;28;20093;-65
2020/12/01 17:26:51;;;;;;;6.45;3.63;;;0.00;99.90;;;;;;20615579;28;20046;-65
2020/12/01 17:36:56;;;;;;;8.23;4.00;;;0.10;99.90;;;;;;20625262;28;20392;-65
2020/12/01 17:46:58;;;;;;;7.70;4.30;;;-0.10;99.90;;;;;;20620699;28;20101;-65
2020/12/01 17:57:11;;;;;;;8.30;5.10;;;-0.30;99.90;;;;;;20626380;28;20042;-63
2020/12/01 18:07:17;;;;;;;11.00;5.75;;;-0.30;99.90;;;;;;20613481;28;20198;-64
2020/12/01 18:17:37;;;;;;;13.85;6.97;;;-0.40;99.90;;;;;;20619719;28;20077;-63
2020/12/01 18:27:43;;;;;;;11.85;5.68;;;-0.40;99.90;;;;;;20618094;28;20120;-63
2020/12/01 18:37:48;;;;;;;10.15;6.20;;;-0.50;99.90;;;;;;20622713;28;20042;-63
2020/12/01 18:47:52;;;;;;;11.07;5.85;;;-0.30;99.90;;;;;;20618850;28;20046;-63
2020/12/01 18:57:55;;;;;;;10.60;5.72;;;-0.20;99.90;;;;;;20625375;28;20050;-63
2020/12/01 19:07:58;;;;;;;8.48;4.03;;;-0.10;99.90;;;;;;20621577;28;20055;-63
2020/12/01 19:18:04;;;;;;;7.68;4.20;;;0.20;99.90;;;;;;20620670;28;20097;-63
2020/12/01 19:28:07;;;;;;;6.60;3.42;;;0.30;99.90;;;;;;20621726;28;20050;-63
2020/12/01 19:38:10;;;;;;;5.57;3.55;;;0.40;99.90;;;;;;20619538;28;20034;-63
2020/12/01 19:48:14;;;;;;;8.40;4.57;;;0.40;99.90;;;;;;20623596;28;20047;-63
2020/12/01 19:58:17;;;;;;;6.28;3.65;;;0.30;99.90;;;;;;20635052;28;20097;-63
2020/12/01 20:08:21;;;;;;;4.57;2.55;;;0.30;99.90;;;;;;20634453;28;20055;-63
2020/12/01 20:18:25;;;;;;;4.50;2.05;;;0.40;99.90;;;;;;20630626;28;20054;-63
2020/12/01 20:28:29;;;;;;;4.25;2.03;;;0.60;99.90;;;;;;20631527;28;20109;-63
2020/12/01 20:39:09;;;;;;;3.97;2.25;;;0.80;99.90;;;;;;20626807;28;20583;-64
2020/12/01 20:49:12;;;;;;;5.22;2.33;;;0.90;99.90;;;;;;20620546;28;20105;-64
2020/12/01 20:59:35;;;;;;;4.55;2.60;;;0.90;99.90;;;;;;20630778;28;20042;-64
2020/12/01 21:09:37;;;;;;;3.97;2.30;;;0.70;99.90;;;;;;20374903;29;20060;-63
2020/12/01 21:19:40;;;;;;;4.55;1.90;;;0.70;99.90;;;;;;20419314;29;20111;-63
2020/12/01 21:30:08;;;;;;;3.83;2.22;;;0.70;99.90;;;;;;20352898;29;20156;-63
2020/12/01 21:40:15;;;;;;;4.63;2.78;;;0.80;99.90;;;;;;20543994;28;20113;-63
2020/12/01 21:50:17;;;;;;;3.83;2.10;;;0.70;99.90;;;;;;20584566;28;20453;-63
2020/12/01 22:00:23;;;;;;;4.75;2.85;;;0.70;99.90;;;;;;20583252;28;20038;-64
2020/12/01 22:10:37;;;;;;;4.72;2.13;;;0.60;99.90;;;;;;20582837;28;20058;-63
2020/12/01 22:20:44;;;;;;;4.90;2.70;;;0.50;99.90;;;;;;20565822;28;20545;-63
2020/12/01 22:31:22;;;;;;;4.03;1.63;;;0.40;99.90;;;;;;20581458;28;20082;-63
2020/12/01 22:41:41;;;;;;;3.47;1.80;;;0.30;99.90;;;;;;20601980;28;20085;-63
2020/12/01 22:52:06;;;;;;;4.30;2.05;;;0.30;99.90;;;;;;20583584;28;20131;-63
2020/12/01 23:02:25;;;;;;;2.90;1.65;;;0.30;99.90;;;;;;20577546;28;20051;-63
2020/12/01 23:12:29;;;;;;;3.13;1.70;;;0.20;99.90;;;;;;20580634;28;20555;-63
2020/12/01 23:22:33;;;;;;;3.13;1.75;;;0.40;99.90;;;;;;20589355;28;20089;-63
2020/12/01 23:32:36;;;;;;;3.15;1.70;;;0.50;99.90;;;;;;20595769;28;20042;-63
2020/12/01 23:43:11;;;;;;;6.72;1.70;;;0.50;99.90;;;;;;20594957;28;20042;-63
2020/12/01 23:53:13;;;;;;;2.80;1.60;;;0.60;99.90;;;;;;20591735;28;20113;-63
